x

8452951 - Potter Cove, Prudence Island, Ri (ptcr1) Weather Station

9:48 - Tue 25th Jul 2017 All times are EDT. -4 hours from GMT.

  • Wind
    7mph, 10mph gusts
  • Aire Temp 63°f
  • Sea Pressure 1022.6mb
  • 8452951 - Potter Cove, Prudence Island, Ri
  • 8452951 - Potter Cove, Prudence Island, Ri

More Historic Weather Station data

Upgrade to MSW Pro to gain access to the past 30 days of data for over 8000 Wavebouys and Weather Stations around the globe.

Join Pro

Comparision Forecast

View Surf forecast
   
mar 07/25 9:48 7 10 mph 1022.6mb 63f
9:42 6 9 mph 1022.5mb 63f
9:36 7 9 mph 1022.5mb 63f
9:30 7 10 mph 1022.4mb 63f
9:24 8 10 mph 1022.4mb 63f
9:18 8 11 mph - -
9:12 8 10 mph 1022.4mb 63f
9:06 8 10 mph 1022.3mb 63f
9:00 6 10 mph 1022.3mb 63f
8:48 6 10 mph 1022.3mb 64f
8:42 7 9 mph 1022.2mb 63f
8:36 7 11 mph 1022.2mb 63f
8:30 5 8 mph 1022.1mb 64f
8:24 6 9 mph 1022.1mb 63f
8:18 3 7 mph - -
8:12 3 7 mph 1021.9mb 63f
8:06 6 7 mph 1022mb 63f
8:00 6 8 mph 1022mb 63f
7:48 7 10 mph 1022mb -
7:42 6 9 mph 1022mb 64f
7:36 7 11 mph 1021.9mb 64f
7:30 7 10 mph 1021.8mb 64f
7:24 7 10 mph 1021.7mb 64f
7:18 7 10 mph 1021.6mb 64f
7:12 9 14 mph 1021.6mb 64f
7:06 10 15 mph 1021.5mb 64f
7:00 8 15 mph 1021.4mb 64f
6:54 7 13 mph 1021.3mb 64f
6:48 7 10 mph 1021.2mb -
6:42 7 10 mph 1021.2mb 64f
6:36 9 14 mph 1021.3mb 64f
6:30 7 11 mph 1021.3mb 64f
6:24 6 9 mph 1021.1mb 64f
6:18 6 10 mph - -
6:12 8 11 mph 1021.1mb 64f
6:06 7 10 mph 1021.1mb 64f
6:00 6 9 mph 1021.1mb 64f
5:54 6 10 mph 1021.1mb 64f
5:48 7 10 mph 1021.1mb -
5:42 7 10 mph 1021mb 64f
5:36 6 9 mph 1021.1mb 64f
5:30 6 9 mph 1021mb 64f
5:24 9 14 mph 1021mb 64f
5:18 8 10 mph 1020.9mb 64f
5:12 7 10 mph 1020.9mb 63f
5:06 10 14 mph 1020.9mb 63f
5:00 9 14 mph 1020.8mb 64f
4:54 9 14 mph 1020.8mb 64f
4:48 10 14 mph 1020.7mb 64f
4:42 10 15 mph 1020.7mb 64f
4:36 10 15 mph 1020.7mb 64f
4:30 11 18 mph 1020.7mb 64f
4:24 9 14 mph 1020.7mb 64f
4:18 10 15 mph 1020.7mb 64f
4:12 10 15 mph 1020.7mb 64f
4:06 11 17 mph 1020.7mb 65f
4:00 10 15 mph 1020.7mb 65f
3:54 10 15 mph 1020.7mb 65f
3:48 9 14 mph 1020.8mb 64f
3:42 11 16 mph 1020.8mb 63f
3:36 10 15 mph 1020.7mb 63f
3:30 10 16 mph 1020.7mb 63f
3:24 13 17 mph 1020.6mb 64f
3:18 9 14 mph 1020.6mb 64f
3:12 8 14 mph 1020.6mb 64f
3:06 8 10 mph 1020.4mb 64f
3:00 8 11 mph 1020.5mb 65f
2:54 8 13 mph 1020.4mb 64f
2:48 10 14 mph - -
2:42 10 15 mph 1020.4mb 62f
2:36 10 15 mph 1020.3mb 62f
2:30 10 15 mph 1020.2mb 62f
2:24 8 13 mph 1020.1mb 62f
2:18 10 14 mph 1020.1mb 62f
2:12 9 14 mph 1020mb 62f
2:06 10 16 mph 1020.1mb 62f
2:00 10 17 mph 1020.1mb 62f
1:54 13 18 mph 1020.1mb 62f
1:48 9 16 mph - -
1:42 9 13 mph 1019.9mb 62f
1:36 8 13 mph 1019.8mb 63f
1:30 10 17 mph 1019.7mb 63f
1:24 10 14 mph 1019.7mb 62f
1:18 10 15 mph 1019.7mb 62f
1:12 10 16 mph 1019.7mb 62f
1:06 10 16 mph 1019.6mb 62f
1:00 10 15 mph 1019.6mb 61f
12:54 11 16 mph 1019.6mb 62f
12:48 11 16 mph 1019.5mb 62f
12:42 9 15 mph 1019.5mb 62f
12:36 10 16 mph 1019.5mb 63f
12:30 13 17 mph 1019.5mb 62f
12:24 11 16 mph 1019.6mb 62f
12:18 11 16 mph 1019.6mb 62f
12:12 9 14 mph 1019.6mb 62f
12:06 10 14 mph 1019.6mb 62f
12:00 10 14 mph 1019.5mb 62f
11:54 10 15 mph 1019.5mb 62f
11:48 9 15 mph 1019.4mb 62f
11:42 10 15 mph 1019.3mb 62f
11:36 11 15 mph 1019.3mb 62f
11:30 10 17 mph 1019.1mb 61f
11:24 9 14 mph 1019.1mb 61f
11:18 13 16 mph 1019.1mb 61f
11:12 14 17 mph 1018.9mb 61f
11:06 11 16 mph 1018.9mb 61f
11:00 10 16 mph 1018.8mb 61f
10:54 11 17 mph 1018.8mb 61f
10:48 10 16 mph 1018.7mb 61f
10:42 11 16 mph 1018.7mb 61f
10:36 14 20 mph 1018.8mb 61f
10:30 13 17 mph 1018.6mb 61f
10:24 13 18 mph 1018.6mb 61f
10:18 13 17 mph - -
10:12 11 17 mph 1018.6mb 61f
10:06 11 16 mph 1018.6mb 61f
10:00 9 14 mph 1018.6mb 61f
9:54 11 16 mph 1018.5mb 61f
9:48 11 16 mph 1018.5mb 61f
9:42 9 15 mph 1018.4mb 60f
9:36 9 15 mph 1018.4mb 61f
9:30 10 16 mph 1018.4mb 60f
9:24 10 15 mph 1018.4mb 60f
9:18 10 14 mph - -
9:12 9 14 mph 1018.4mb 60f
9:06 11 16 mph 1018.4mb 60f
9:00 11 16 mph 1018.4mb 60f
8:54 11 17 mph 1018.4mb 60f
8:48 9 15 mph 1018.3mb 60f
8:42 9 15 mph 1018.2mb 60f
8:36 9 16 mph 1018.2mb 60f
8:30 7 11 mph 1018.2mb 60f
8:24 8 13 mph 1018.1mb 60f
8:18 9 15 mph - -
8:12 9 13 mph 1017.7mb 61f
8:06 9 14 mph 1017.7mb 61f
8:00 11 14 mph 1017.7mb 61f
7:54 9 13 mph 1017.6mb 60f
7:48 10 16 mph 1017.5mb 61f
7:42 11 17 mph 1017.4mb 61f
7:36 13 17 mph 1017.2mb 61f
7:30 11 16 mph 1017mb 61f
7:24 13 18 mph 1017mb 61f
7:18 11 17 mph 1017mb 60f
7:12 9 16 mph 1017.1mb 60f
7:06 9 14 mph 1017.1mb 60f
7:00 9 11 mph 1017.1mb 60f
6:54 9 14 mph 1017.1mb 60f
6:48 10 15 mph 1017mb 60f
6:42 9 15 mph 1016.9mb 60f
6:36 13 17 mph 1016.8mb 60f
6:30 10 15 mph 1016.5mb 60f
6:24 10 16 mph 1016.5mb 60f
6:18 9 15 mph 1016.5mb 60f
6:12 11 17 mph 1016.5mb 60f
6:06 9 14 mph 1016.4mb 60f
6:00 10 15 mph 1016.4mb 60f
5:54 10 15 mph 1016.3mb 60f
5:48 9 15 mph 1016.3mb 60f
5:42 11 16 mph 1016.3mb 60f
5:36 9 16 mph 1016.3mb 60f
5:30 11 18 mph 1016.2mb 60f
5:24 14 21 mph 1016mb 60f
5:18 14 21 mph 1015.7mb 60f
5:12 14 18 mph 1015.6mb 60f
5:06 10 16 mph 1015.6mb 60f
5:00 10 14 mph 1015.6mb 60f
4:54 10 16 mph 1015.6mb 60f
4:48 10 16 mph - -
4:42 9 15 mph 1015.5mb 60f
4:36 9 15 mph 1015.5mb 60f
4:30 11 16 mph 1015.5mb 60f
4:24 10 16 mph 1015.3mb 60f
4:18 10 17 mph 1015.2mb 60f
4:12 10 15 mph 1015.2mb 60f
4:06 10 16 mph 1015.1mb 60f
4:00 8 13 mph 1015mb 60f
3:54 9 15 mph 1015mb 60f
3:48 9 15 mph 1014.9mb 60f
3:42 10 17 mph 1014.9mb 60f
3:36 8 13 mph 1014.8mb 60f
3:30 9 15 mph 1014.8mb 60f
3:24 9 14 mph 1014.8mb 60f
3:18 10 16 mph 1014.8mb 60f
3:12 10 15 mph 1014.9mb 60f
3:06 9 15 mph 1014.9mb 59f
3:00 10 16 mph 1014.6mb 60f
2:54 11 18 mph 1014.6mb 60f
2:48 11 17 mph 1014.7mb 60f
2:42 11 17 mph 1014.7mb -
2:36 13 20 mph 1014.5mb -
2:30 14 21 mph 1014.5mb 61f
2:24 14 18 mph 1014.5mb 61f
2:18 10 15 mph 1014.4mb 61f
2:12 11 20 mph 1014.6mb 61f
2:06 10 15 mph 1014.6mb 60f
2:00 8 14 mph 1014.7mb 60f
1:54 10 15 mph 1014.7mb 61f
1:48 11 17 mph - -
1:42 10 15 mph 1014.6mb 61f
1:36 10 17 mph 1014.7mb 61f
1:30 11 16 mph 1014.8mb 61f
1:24 10 16 mph 1014.8mb 60f
1:18 10 16 mph 1014.7mb 60f
1:12 10 16 mph 1014.5mb 61f
1:06 10 15 mph 1014.5mb 61f
1:00 11 14 mph 1014.6mb 61f
12:54 10 15 mph 1014.6mb 60f
12:48 13 17 mph - -
12:42 13 16 mph 1014.4mb 61f
12:36 15 20 mph 1014.4mb 61f
12:30 14 21 mph 1014.3mb 60f
12:24 14 18 mph 1014.3mb 61f
12:18 14 18 mph 1014.2mb 61f
12:12 14 21 mph 1014.1mb 61f
12:06 13 21 mph 1014mb 61f
12:00 13 17 mph 1014.1mb 61f
lun 07/24 11:54 11 17 mph 1014.2mb 61f
11:48 10 17 mph 1014mb 61f
11:42 9 14 mph 1014mb 61f
11:36 10 18 mph 1014.1mb 61f
11:30 13 18 mph 1014mb 60f
11:24 11 16 mph 1014mb 60f
11:18 10 16 mph 1014mb 60f
11:12 11 17 mph 1014mb 60f
11:06 11 18 mph 1013.9mb 60f
11:00 10 17 mph 1013.6mb 61f
10:54 9 17 mph 1013.5mb 60f
10:48 9 16 mph 1013.6mb 60f
10:42 14 20 mph 1013.4mb 61f
10:36 13 18 mph 1013.2mb 62f
10:30 16 23 mph 1013.4mb 61f
10:24 15 24 mph 1013mb 62f
10:18 17 22 mph 1013mb -
10:12 15 21 mph 1012.8mb 62f
10:06 15 22 mph 1012.9mb 62f
10:00 17 25 mph 1012.7mb 62f
9:54 20 25 mph 1012.5mb 62f
9:48 15 22 mph 1012.4mb 62f
9:42 14 21 mph 1012.6mb 62f
9:36 15 22 mph 1012.5mb 61f
9:30 15 22 mph 1012.4mb 62f
9:24 13 20 mph 1012.4mb 62f
9:18 14 22 mph 1012.5mb -
9:12 13 21 mph 1012.6mb 61f
9:06 11 17 mph 1012.4mb 61f
9:00 14 20 mph 1012.4mb 61f
8:54 10 16 mph 1012.4mb 61f
8:48 11 21 mph - -
8:42 15 22 mph 1012.3mb 61f
8:36 15 24 mph 1012mb 61f
8:30 14 20 mph 1012mb 61f
8:24 14 21 mph 1011.9mb 61f
8:18 14 21 mph 1011.8mb 61f
8:12 14 21 mph 1011.6mb 61f
8:06 14 20 mph 1011.6mb 61f
8:00 13 22 mph 1011.7mb 61f
7:54 14 22 mph 1011.7mb 61f
7:48 14 23 mph 1011.5mb -
7:42 15 26 mph 1011.3mb 60f
7:36 14 21 mph 1011.3mb 61f
7:30 14 20 mph 1011.1mb 61f
7:24 13 18 mph 1011mb 61f
7:18 13 21 mph 1010.8mb 60f
7:12 15 23 mph 1010.8mb 60f
7:06 15 22 mph 1010.7mb 60f
7:00 13 21 mph 1010.7mb 60f
6:54 13 21 mph 1010.7mb 60f
6:48 14 22 mph - -
6:42 14 22 mph 1010.5mb 60f
6:36 14 21 mph 1010.5mb 60f
6:30 14 20 mph 1010.6mb 60f
6:24 14 22 mph 1010.5mb 60f
6:18 14 21 mph 1010.5mb 60f
6:12 14 21 mph 1010.5mb 60f
6:06 15 23 mph 1010.5mb 60f
6:00 16 22 mph 1010.4mb 60f
5:54 15 25 mph 1010.3mb 60f
5:48 21 28 mph 1010.5mb -
5:42 17 24 mph 1010.4mb 60f
5:36 18 29 mph 1010.3mb 60f
5:30 15 23 mph 1010.2mb 60f
5:24 20 29 mph 1010.2mb 60f
5:18 17 26 mph 1010.1mb 60f
5:12 18 28 mph 1010.1mb 60f
5:06 16 24 mph 1010.1mb 60f
5:00 16 23 mph 1010.2mb 60f
4:54 14 22 mph 1010.4mb 60f
4:48 14 21 mph - -
4:42 16 23 mph 1010.4mb 60f
4:36 15 23 mph 1010.4mb 60f
4:30 16 25 mph 1010.3mb 60f
4:24 14 23 mph 1010.3mb 60f
4:18 14 23 mph 1010.3mb 60f
4:12 15 22 mph 1010.2mb 60f
4:06 16 24 mph 1010mb 60f
4:00 17 25 mph 1009.9mb 60f
3:54 15 22 mph 1009.9mb 60f
3:48 16 24 mph 1009.7mb 61f
3:42 17 24 mph 1009.7mb 60f
3:36 18 26 mph 1009.7mb 60f
3:30 20 26 mph 1009.7mb 60f
3:24 20 28 mph 1009.8mb 60f
3:18 17 23 mph 1009.8mb 60f
3:12 17 29 mph 1009.9mb 60f
3:06 18 28 mph 1009.9mb 60f
3:00 17 26 mph 1009.6mb 60f
2:54 18 26 mph 1009.8mb 60f
2:48 20 26 mph 1009.4mb 60f
2:42 17 23 mph 1009.7mb 60f
2:36 14 22 mph 1010.1mb 60f
2:30 16 24 mph 1010.1mb 61f
2:24 17 23 mph 1009.8mb 61f
2:18 13 21 mph 1009.8mb 60f
2:12 10 18 mph 1010.4mb 60f
2:06 14 18 mph 1010.4mb 60f
2:00 14 21 mph 1010.1mb 61f
1:54 14 20 mph 1010mb 60f
1:48 14 21 mph 1010.1mb 60f
1:42 13 18 mph 1010mb 60f
1:36 11 18 mph 1009.9mb 60f
1:30 11 16 mph 1010.1mb 60f
1:24 13 17 mph 1010.2mb 60f
1:18 13 22 mph 1010.1mb 61f
1:12 14 18 mph 1010mb 61f
1:06 14 20 mph 1010mb 61f
1:00 13 20 mph 1010.1mb 61f
12:54 13 17 mph 1010.2mb 61f
12:48 13 18 mph 1010.3mb 61f
12:42 14 18 mph 1010.2mb 61f
12:36 14 18 mph 1010.2mb 61f
12:30 14 21 mph 1010.3mb 61f
12:24 14 21 mph 1010.1mb 61f
12:18 11 16 mph 1010mb 61f
12:12 9 13 mph 1010.5mb 61f
12:06 10 15 mph 1010.8mb 61f
12:00 11 17 mph 1010.6mb 61f
11:54 14 18 mph 1010.4mb 61f
11:48 14 21 mph 1010.2mb 61f
11:42 13 17 mph 1010.3mb 61f
11:36 13 18 mph 1010.6mb 62f
11:30 13 20 mph 1010.6mb 62f
11:24 14 23 mph 1010.6mb 62f
11:18 13 20 mph 1010.6mb 62f
11:12 14 21 mph 1010.7mb 63f
11:06 13 20 mph 1010.7mb 63f
11:00 14 21 mph 1010.9mb 63f
10:54 13 18 mph 1010.9mb 62f
10:48 14 18 mph - -
10:42 14 21 mph 1011mb 62f
10:36 15 22 mph 1011.2mb 62f
10:30 14 21 mph 1011.1mb 62f
10:24 14 21 mph 1011.3mb 62f
10:18 13 18 mph 1011.3mb 62f
10:12 13 20 mph 1011.6mb 62f
10:06 10 17 mph 1011.6mb 62f
10:00 14 20 mph 1011.5mb 62f
9:54 11 17 mph 1011.4mb 62f
9:48 11 17 mph - -
9:42 10 17 mph 1011.5mb 62f
9:36 10 16 mph 1011.5mb 62f
9:30 10 17 mph 1011.4mb 62f
9:24 13 17 mph 1011.4mb 62f
9:18 11 20 mph - -
9:12 13 20 mph 1011mb 62f
9:06 13 20 mph 1011mb 62f
9:00 14 21 mph 1011.1mb 63f
8:54 11 18 mph 1011.5mb 62f
8:48 14 22 mph 1011.5mb 62f
8:42 13 18 mph 1011.5mb 63f
8:36 11 17 mph 1011.6mb 63f
8:30 13 20 mph 1011.9mb 63f
8:24 10 14 mph 1012mb 63f
8:18 11 16 mph 1012mb 63f
8:12 13 17 mph 1011.9mb 63f
8:06 9 15 mph 1011.8mb 64f
8:00 10 15 mph 1012.2mb 64f
7:54 11 17 mph 1012.1mb 64f
7:48 11 16 mph 1011.9mb 64f
7:42 11 17 mph 1011.6mb 64f
7:36 10 16 mph 1011.7mb 64f
7:30 13 20 mph 1011.8mb 64f
7:24 16 26 mph 1011.6mb 64f
7:18 15 22 mph - -
7:12 10 18 mph 1011.3mb 65f
7:06 10 14 mph 1011.5mb 65f
7:00 9 15 mph 1011.8mb 65f
6:54 8 15 mph 1011.8mb 65f
6:48 10 16 mph 1011.9mb 65f
6:42 11 16 mph 1011.9mb 66f
6:36 9 15 mph 1011.8mb 66f
6:30 8 14 mph 1011.9mb 66f
6:24 6 11 mph 1012mb 66f
6:18 5 10 mph 1012.1mb 66f
6:12 6 10 mph 1012.1mb 66f
6:06 6 13 mph 1012.3mb 66f
6:00 6 11 mph 1012.3mb 66f
5:54 5 8 mph 1012.2mb 66f
5:48 5 9 mph 1012.3mb 65f
5:42 6 8 mph 1012.4mb 66f
5:36 6 10 mph 1012.6mb 66f
5:30 6 9 mph 1012.7mb 67f
5:24 6 9 mph 1012.6mb 67f
5:18 6 11 mph 1012.5mb 68f
5:12 6 14 mph 1012.4mb 68f
5:06 7 10 mph 1012.3mb 68f
5:00 6 11 mph 1012.4mb 68f
4:54 7 13 mph 1012.3mb 68f
4:48 10 17 mph - -
4:42 9 16 mph 1012mb 68f
4:36 9 14 mph 1012.1mb 68f
4:30 9 15 mph 1012.1mb 68f
4:24 8 13 mph 1012mb 68f
4:18 7 11 mph 1012.3mb 68f
4:12 6 9 mph 1012.5mb 68f
4:06 6 9 mph 1012.6mb 68f
4:00 5 7 mph 1012.6mb 67f
3:54 5 11 mph 1012.7mb 67f
3:48 8 11 mph - -
3:42 8 13 mph 1012.5mb 67f
3:36 7 11 mph 1012.4mb 67f
3:30 8 13 mph 1012.6mb 67f
3:24 6 13 mph 1012.3mb 67f
3:18 7 10 mph 1012.5mb 67f
3:12 5 7 mph 1012.5mb 67f
3:06 6 10 mph 1012.6mb 67f
3:00 2 6 mph 1012.6mb 67f
2:54 3 7 mph 1012.6mb 67f
2:48 3 6 mph 1012.7mb 67f
2:42 5 10 mph 1012.6mb 67f
2:36 3 8 mph 1012.4mb 67f
2:30 5 9 mph 1012.5mb 67f
2:24 7 10 mph 1012.7mb 67f
2:18 6 9 mph - -
2:12 6 9 mph 1012.9mb 67f
2:06 5 8 mph 1013mb 67f
2:00 5 8 mph 1013mb 67f
1:54 3 6 mph 1013mb 67f
1:48 5 7 mph 1013.2mb -
1:42 3 6 mph 1013.3mb -
1:36 5 7 mph 1013.4mb -
1:30 3 6 mph 1013.2mb 67f
1:24 2 6 mph 1013.2mb 67f
1:18 2 5 mph 1013.2mb 67f
1:12 3 7 mph 1013.2mb 67f
1:06 5 8 mph 1013.2mb 67f
1:00 6 8 mph 1013.3mb 67f
12:54 5 8 mph 1013.3mb 67f
12:48 5 7 mph 1013.4mb 67f
12:42 3 6 mph 1013.6mb 67f
12:36 5 8 mph 1013.7mb 67f
12:30 6 8 mph 1013.6mb 67f
12:24 6 8 mph 1013.6mb 67f
12:18 6 8 mph - -
12:12 6 9 mph 1013.5mb 67f
12:06 6 8 mph 1013.5mb 67f
12:00 3 8 mph 1013.5mb 67f
dom 07/23 11:54 5 8 mph 1013.5mb 67f
11:48 3 6 mph 1013.6mb -
11:42 5 7 mph 1013.6mb 67f
11:36 7 9 mph 1013.4mb 67f
11:30 5 9 mph 1013.3mb 67f
11:24 6 9 mph 1013.3mb 67f
11:18 6 9 mph 1013.2mb 67f
11:12 8 10 mph 1013.1mb 67f
11:06 8 11 mph 1013.2mb 67f
11:00 9 13 mph 1013mb 67f
10:54 7 11 mph 1013.1mb 67f
10:48 8 13 mph 1013.1mb 67f
10:42 8 13 mph 1013.2mb 67f
10:36 9 13 mph 1013.1mb 67f
10:30 8 13 mph 1013mb 67f
10:24 8 13 mph 1013.1mb 67f
10:18 8 11 mph 1013.1mb -
10:12 9 14 mph 1013.2mb 67f
10:06 8 13 mph 1013.2mb 67f
10:00 8 13 mph 1013.1mb 67f
9:54 9 14 mph 1013.2mb 67f
9:48 10 15 mph - -
9:42 10 14 mph 1013.2mb 68f
9:36 9 15 mph 1013.1mb 68f
9:30 10 15 mph 1013mb 68f
9:24 9 14 mph 1013mb 68f
9:18 8 14 mph 1013.1mb 68f
9:12 8 14 mph 1013.1mb 69f
9:06 8 14 mph 1012.9mb 68f
9:00 7 10 mph 1012.9mb 69f
8:54 7 11 mph 1012.9mb 69f
8:48 8 13 mph 1012.9mb -
8:42 10 13 mph 1012.9mb 69f
8:36 7 11 mph 1012.8mb 69f
8:30 5 8 mph 1012.8mb 69f
8:24 6 11 mph 1012.7mb 69f
8:18 5 8 mph 1012.7mb 70f
8:12 5 9 mph 1012.6mb 70f
8:06 5 11 mph 1012.5mb 70f
8:00 7 10 mph 1012.4mb 69f
7:54 7 11 mph 1012.3mb 69f
7:48 7 11 mph 1012.2mb -
7:42 6 10 mph 1012.3mb 70f
7:36 7 10 mph 1012.2mb 70f
7:30 7 10 mph 1012.2mb 70f
7:24 7 11 mph 1012.3mb 70f
7:18 6 9 mph 1012.2mb 70f
7:12 6 10 mph 1012.1mb 71f
7:06 7 10 mph 1012.1mb 71f
7:00 8 10 mph 1011.9mb 71f
6:54 7 10 mph 1011.9mb 71f
6:48 7 11 mph 1011.8mb -
6:42 7 13 mph 1011.8mb 72f
6:36 7 10 mph 1011.7mb 72f
6:30 7 13 mph 1011.7mb 72f
6:24 7 10 mph 1011.7mb 72f
6:18 7 11 mph - -
6:12 8 11 mph 1011.6mb 72f
6:06 9 13 mph 1011.6mb 73f
6:00 7 10 mph 1011.6mb 73f
5:54 7 11 mph 1011.5mb 73f
5:48 7 10 mph 1011.5mb 73f
5:42 7 9 mph 1011.5mb 73f
5:36 6 9 mph 1011.5mb 73f
5:30 7 10 mph 1011.5mb 74f
5:24 7 11 mph 1011.4mb 74f
5:18 7 10 mph 1011.4mb 74f
5:12 8 11 mph 1011.3mb 74f
5:06 7 10 mph 1011.3mb 74f
5:00 6 9 mph 1011.4mb 74f
4:54 7 10 mph 1011.3mb 75f
4:48 8 11 mph 1011.4mb 74f
4:42 7 11 mph 1011.4mb 74f
4:36 8 11 mph 1011.4mb 75f
4:30 7 11 mph 1011.4mb 74f
4:24 7 13 mph 1011.3mb 75f
4:18 7 11 mph 1011.4mb 76f
4:12 7 10 mph 1011.3mb 75f
4:06 8 11 mph 1011.3mb 75f
4:00 7 11 mph 1011.3mb 75f
3:54 7 10 mph 1011.2mb 75f
3:48 7 10 mph 1011.2mb 75f
3:42 7 11 mph 1011.1mb 75f
3:36 8 13 mph 1011mb 74f
3:30 8 11 mph 1011mb 75f
3:24 7 10 mph 1011.1mb 75f
3:18 7 10 mph 1011.1mb 76f
3:12 7 10 mph 1011.1mb 75f
3:06 6 9 mph 1011.3mb 75f
3:00 7 10 mph 1011.3mb 76f
2:54 8 11 mph 1011.3mb 76f
2:48 8 13 mph 1011.3mb 76f
2:42 8 13 mph 1011.2mb 76f
2:36 8 14 mph 1011.3mb 76f
2:30 7 11 mph 1011.2mb 75f
2:24 7 10 mph 1011.3mb 75f
2:18 8 11 mph - -
2:12 10 14 mph 1011.3mb 74f
2:06 8 13 mph 1011.4mb 74f
2:00 9 14 mph 1011.3mb 74f
1:54 10 15 mph 1011.3mb 74f
1:48 9 14 mph 1011.4mb 74f
1:42 10 16 mph 1011.3mb 74f
1:36 9 15 mph 1011.4mb 74f
1:30 9 14 mph 1011.3mb 74f
1:24 10 15 mph 1011.3mb 74f
1:18 10 15 mph 1011.3mb 74f
1:12 11 18 mph 1011.3mb 74f
1:06 11 16 mph 1011.2mb 74f
1:00 13 18 mph 1011.1mb 74f
12:54 10 15 mph 1011.1mb 74f
12:48 13 18 mph 1011.2mb 74f
12:42 14 21 mph 1011.1mb 74f
12:36 13 18 mph 1011.1mb 74f
12:30 11 18 mph 1011.1mb 74f
12:24 10 16 mph 1011.1mb 74f
12:18 10 15 mph 1011mb 74f
12:12 11 17 mph 1010.8mb 74f
12:06 13 16 mph 1010.7mb 74f
12:00 11 17 mph 1010.8mb 74f
11:54 10 18 mph 1010.7mb 74f
11:48 11 17 mph - -
11:42 11 18 mph 1010.6mb 73f
11:36 13 22 mph 1010.6mb 73f
11:30 13 18 mph 1010.5mb 73f
11:24 11 20 mph 1010.5mb 73f
11:18 14 21 mph - -
11:12 13 20 mph 1010.5mb 73f
11:06 11 17 mph 1010.4mb 73f
11:00 13 17 mph 1010.5mb 73f
10:54 13 18 mph 1010.5mb 73f
10:48 10 17 mph 1010.4mb 73f
10:42 14 18 mph 1010.3mb 73f
10:36 14 21 mph 1010.2mb 73f
10:30 13 21 mph 1010.3mb 73f
10:24 15 21 mph 1010.2mb 74f
10:18 11 17 mph - -
10:12 14 21 mph 1010.2mb 73f
10:06 10 15 mph 1010.2mb 73f
10:00 11 17 mph 1010.1mb 73f
9:54 10 16 mph 1010.2mb 72f
9:48 10 15 mph 1010.1mb 72f
9:42 9 13 mph 1010mb 72f
9:36 11 17 mph 1010mb 72f
9:30 11 16 mph 1009.8mb 71f
9:24 9 14 mph 1009.8mb 71f
9:18 11 17 mph 1009.9mb 71f
9:12 11 17 mph 1009.9mb 71f
9:06 11 17 mph 1009.7mb 71f
9:00 10 17 mph 1009.8mb 71f
8:54 11 14 mph 1009.7mb 71f
8:48 11 18 mph 1009.5mb 70f
8:42 11 17 mph 1009.3mb 70f
8:36 10 16 mph 1009.3mb 70f
8:30 11 17 mph 1009.3mb 71f
8:24 11 16 mph 1009.2mb 71f
8:18 14 21 mph 1009mb 70f
8:12 15 23 mph 1008.8mb 71f
8:06 17 22 mph 1008.7mb 71f
8:00 18 26 mph 1008.6mb 71f
7:54 16 23 mph 1008.6mb 71f
7:48 14 20 mph - -
7:42 15 21 mph 1008.6mb 71f
7:36 16 22 mph 1008.5mb 71f
7:30 16 22 mph 1008.4mb 71f
7:24 14 18 mph 1008.2mb 71f
7:18 14 18 mph 1008.3mb 72f
7:12 13 18 mph 1008.3mb 71f
7:06 14 17 mph 1008.2mb 72f
7:00 13 17 mph 1007.9mb 72f
6:54 11 18 mph 1007.8mb 72f
6:48 11 16 mph 1007.7mb 72f
6:42 11 16 mph 1007.7mb 72f
6:36 10 16 mph 1007.6mb 72f
6:30 10 15 mph 1007.6mb 72f
6:24 10 14 mph 1007.5mb 72f
6:18 9 13 mph 1007.4mb 72f
6:12 9 14 mph 1007.2mb 73f
6:06 9 15 mph 1007.1mb 73f
6:00 8 14 mph 1007.1mb 73f
5:54 8 13 mph 1007mb 73f
5:48 8 10 mph 1007mb 73f
5:42 6 9 mph 1006.9mb 73f
5:36 6 7 mph 1006.8mb 73f
5:30 3 7 mph 1006.7mb 73f
5:24 3 5 mph 1006.7mb 72f
5:18 2 3 mph 1006.6mb 72f
5:12 2 3 mph 1006.7mb 72f
5:06 2 3 mph 1006.7mb 72f
5:00 1 3 mph 1006.7mb 73f
4:54 2 5 mph 1006.7mb 73f
4:48 3 5 mph 1006.6mb 73f
4:42 3 5 mph 1006.6mb 73f
4:36 3 6 mph 1006.5mb 73f
4:30 3 6 mph 1006.5mb 73f
4:24 3 6 mph 1006.5mb 73f
4:18 3 6 mph 1006.4mb 72f
4:12 3 5 mph 1006.4mb 72f
4:06 3 5 mph 1006.5mb 72f
4:00 2 3 mph 1006.6mb 72f
3:54 2 2 mph 1006.6mb 72f
3:48 1 2 mph 1006.5mb 72f
3:42  -  1 mph 1006.7mb 72f
3:36 1 2 mph 1006.7mb 72f
3:30 2 3 mph 1006.8mb 73f
3:24 2 3 mph 1006.7mb 73f
3:18 2 3 mph 1006.7mb 72f
3:12 1 2 mph 1006.7mb 73f
3:06 2 3 mph 1006.7mb 73f
3:00  -  2 mph 1006.8mb 72f
2:54 1 5 mph 1006.8mb 72f
2:48 2 5 mph 1006.7mb 72f
2:42 3 6 mph 1006.8mb -
2:36 3 7 mph 1006.9mb -
2:30 3 5 mph 1007mb 72f
2:24 3 5 mph 1007mb 72f
2:18 2 5 mph 1007.1mb 72f
2:12 3 5 mph 1007mb 72f
2:06 2 5 mph 1007.1mb 72f
2:00 2 3 mph 1007.2mb 71f
1:54  -  1 mph 1007.3mb 71f
1:48 2 3 mph 1007.2mb 71f
1:42 2 3 mph 1007.4mb -
1:36 2 3 mph 1007.4mb -
1:30 2 3 mph 1007.5mb 71f
1:24 1 1 mph 1007.6mb 71f
1:18  -  1 mph 1007.7mb 71f
1:12  -  0 mph 1007.7mb 72f
1:06  -  0 mph 1007.8mb 72f
1:00  -  1 mph 1007.9mb 71f
12:54  -  0 mph 1008mb 71f
12:48  -  2 mph 1008mb 71f
12:42  -  0 mph 1008.1mb 71f
12:36 1 2 mph 1008mb 72f
12:30 1 2 mph 1008.2mb 72f
12:24 2 3 mph 1008.1mb 72f
12:18  -  1 mph 1008.3mb 72f
12:12 1 3 mph 1008.4mb 72f
12:06 5 6 mph 1008.4mb 71f
12:00  -  1 mph 1008.5mb 71f
sáb 07/22 11:54  -  0 mph 1008.3mb 73f
11:48  -  0 mph 1008.3mb 72f
11:42 1 2 mph 1008.4mb 73f
11:36 1 2 mph 1008.5mb 73f
11:30 2 3 mph 1008.6mb 73f
11:24 2 3 mph 1008.6mb 73f
11:18 3 6 mph - -
11:12 3 6 mph 1008.6mb 73f
11:06 2 3 mph 1008.6mb 73f
11:00 5 6 mph 1008.6mb 73f
10:54 5 6 mph 1008.6mb 73f
10:48 3 5 mph 1008.6mb 73f
10:42 2 5 mph 1008.7mb 73f
10:36 5 6 mph 1008.7mb 73f
10:30 5 6 mph 1008.7mb 73f
10:24 5 6 mph 1008.7mb 74f
10:18 5 9 mph 1008.7mb 74f
10:12 5 8 mph 1008.7mb 74f
10:06 2 6 mph 1008.5mb 73f
10:00 2 5 mph 1008.5mb 73f
9:54  -  2 mph 1008.5mb 73f
9:48 2 3 mph 1008.5mb -
9:42 2 6 mph 1008.6mb 73f
9:36 2 5 mph 1008.5mb 73f
9:30 2 3 mph 1008.5mb 73f
9:24  -  2 mph 1008.4mb 73f
9:18 2 2 mph 1008.4mb 74f
9:12 1 2 mph 1008.4mb 74f
9:06 1 3 mph 1008.5mb 74f
9:00 2 5 mph 1008.5mb 74f
8:54 1 3 mph 1008.5mb 74f
8:48 2 3 mph 1008.6mb 74f
8:42 2 5 mph 1008.5mb 74f
8:36 2 3 mph 1008.6mb 74f
8:30 2 5 mph 1008.6mb 74f
8:24 2 6 mph 1008.7mb 74f
8:18 1 3 mph 1008.9mb -
8:12 3 7 mph 1008.8mb 74f
8:06 3 6 mph 1008.9mb 74f
8:00 2 6 mph 1008.8mb 74f
7:54 3 6 mph 1008.9mb 75f
7:48 3 6 mph - -
7:42 3 6 mph 1008.8mb 75f
7:36 3 7 mph 1008.9mb 75f
7:30 3 7 mph 1008.8mb 75f
7:24 5 9 mph 1008.8mb 75f
7:12 5 9 mph 1008.7mb 75f
7:06 5 9 mph 1008.7mb 75f
7:00 6 9 mph 1008.6mb 76f
6:54 3 8 mph 1008.5mb 76f
6:48 5 9 mph 1008.6mb -
6:42 5 8 mph 1008.8mb 76f
6:36 5 8 mph 1009mb 76f
6:30 3 8 mph 1008.9mb 76f
6:24 5 8 mph 1009mb 76f
6:18 6 9 mph 1009mb -
6:12 3 10 mph 1008.9mb 76f
6:06 5 9 mph 1008.9mb 77f
6:00 3 8 mph 1009mb 77f
5:54 5 8 mph 1009mb 77f
5:48 3 8 mph 1008.8mb 77f
5:42 5 9 mph 1008.9mb 77f
5:36 3 7 mph 1009mb 77f
5:30 2 5 mph 1009.1mb 77f
5:24 2 6 mph 1009.1mb 78f
5:18 2 6 mph 1009.1mb 78f
5:12 5 7 mph 1009.1mb 78f
5:06 3 8 mph 1009.2mb 78f
5:00 3 7 mph 1009.1mb 80f
4:54 3 7 mph 1009.1mb 80f
4:48 5 8 mph 1009.2mb 80f
4:42 6 11 mph 1009.2mb 78f
4:36 5 10 mph 1009.3mb 78f
4:30 5 7 mph 1009.3mb 79f
4:24 3 8 mph 1009.4mb 79f
4:18 6 9 mph 1009.4mb 79f
4:12 3 7 mph 1009.5mb 79f
4:06 5 7 mph 1009.6mb 79f
4:00 3 8 mph 1009.6mb 78f
3:54 5 9 mph 1009.8mb 78f
3:48 5 7 mph 1009.7mb 78f
3:42 3 8 mph 1009.8mb 78f
3:36 5 9 mph 1009.8mb 77f
3:30 5 7 mph 1009.8mb 78f
3:24 5 8 mph 1009.9mb 78f
3:18 5 8 mph 1009.8mb 78f
3:12 5 10 mph 1009.9mb 79f
3:06 5 9 mph 1009.9mb 79f
3:00 5 9 mph 1010mb 79f
2:54 6 10 mph 1010mb 80f
2:48 5 10 mph - -
2:42 5 9 mph 1010.2mb 79f
2:36 5 10 mph 1010.3mb 79f
2:30 5 10 mph 1010.3mb 79f
2:24 3 6 mph 1010.4mb 80f
2:18 5 7 mph 1010.4mb 81f
2:12 3 7 mph 1010.4mb 81f
2:06 5 6 mph 1010.5mb 81f
2:00 3 6 mph 1010.5mb 81f
1:54 3 6 mph 1010.5mb 82f
1:48 2 5 mph 1010.6mb 82f
1:42 2 5 mph 1010.6mb 83f
1:36 2 3 mph 1010.6mb 83f
1:30 2 5 mph 1010.7mb 82f
1:24 2 5 mph 1010.7mb 83f
1:18  -  2 mph 1010.7mb 83f
1:12  -  1 mph 1010.7mb 84f
1:06 2 3 mph 1010.7mb 83f
1:00 2 3 mph 1010.7mb 82f
12:54 2 3 mph 1010.8mb 82f
12:48 2 3 mph 1011mb 82f
12:42 2 3 mph 1011mb 81f
12:36 1 2 mph 1011.2mb 81f
12:30 1 2 mph 1011.1mb 80f
12:24  -  2 mph 1011.1mb 81f
12:18  -  2 mph 1011.1mb 81f
12:12 1 2 mph 1011.2mb 81f
12:06 1 2 mph 1011.2mb 80f
12:00 1 2 mph 1011.3mb 81f
11:54 1 2 mph 1011.4mb 80f
11:48 1 2 mph - -
11:42 1 2 mph 1011.4mb 80f
11:36 1 3 mph 1011.4mb 80f
11:30  -  2 mph 1011.4mb 80f
11:24  -  1 mph 1011.4mb 80f
11:18 1 2 mph 1011.4mb 80f
11:12 1 2 mph 1011.5mb 80f
11:06  -  1 mph 1011.3mb 80f
11:00  -  1 mph 1011.5mb 80f
10:54 1 2 mph 1011.5mb 79f
10:48 2 2 mph - -
10:42 2 3 mph 1011.4mb 79f
10:36 2 3 mph 1011.4mb 78f
10:30 2 3 mph 1011.4mb 78f
10:24 2 5 mph 1011.4mb 78f
10:18 3 5 mph 1011.3mb 78f
10:12 3 6 mph 1011.3mb 78f
10:06 5 6 mph 1011.5mb 78f
10:00 3 5 mph 1011.5mb 78f
9:54 3 5 mph 1011.4mb 77f
9:48 2 5 mph 1011.5mb 77f
9:42  -  1 mph 1011.5mb 78f
9:36  -  1 mph 1011.4mb 77f
9:30  -  1 mph 1011.5mb 78f
9:24 1 2 mph 1011.4mb 77f
9:18  -  2 mph - -
9:12 2 3 mph 1011.6mb 77f
9:06  -  2 mph 1011.6mb 77f
9:00  -  2 mph 1011.6mb 77f
8:54  -  2 mph 1011.6mb 78f
8:48  -  1 mph 1011.6mb 77f
8:42 1 2 mph 1011.7mb 77f
8:36 1 3 mph 1011.7mb 76f
8:30 2 5 mph 1011.8mb 76f
8:24 2 5 mph 1011.8mb 75f
8:18 2 3 mph 1011.8mb 76f
8:12 3 6 mph 1011.7mb 75f
8:06 2 3 mph 1011.7mb 76f
8:00  -  1 mph 1011.7mb 76f
7:54  -  1 mph 1011.6mb 76f
7:48  -  2 mph 1011.5mb 76f
7:42  -  2 mph 1011.6mb 76f
7:36 1 2 mph 1011.6mb 75f
7:30 1 2 mph 1011.6mb 74f
7:24  -  2 mph 1011.5mb 74f
7:18  -  0 mph 1011.5mb 74f
7:12  -  1 mph 1011.4mb 75f
7:06  -  1 mph 1011.3mb 74f
7:00 1 3 mph 1011.3mb 74f
6:54 3 5 mph 1011.3mb 73f
6:48 2 3 mph - -
6:42  -  3 mph 1011.1mb 73f
6:36  -  2 mph 1010.9mb 73f
6:30  -  2 mph 1010.8mb 73f
6:24 1 3 mph 1010.6mb 73f
6:18 1 3 mph 1010.6mb 72f
6:12 1 2 mph 1010.6mb 72f
6:06 1 2 mph 1010.6mb 72f
6:00 1 2 mph 1010.4mb 72f
5:54 1 2 mph 1010.3mb 72f
5:48 2 3 mph 1010.4mb 72f
5:42 1 2 mph 1010.4mb 71f
5:36 2 3 mph 1010.3mb 71f
5:30 3 6 mph 1010.2mb 72f
5:24 3 6 mph 1010.2mb 71f
5:18 3 5 mph 1010.2mb 71f
5:12 2 3 mph 1010.1mb 71f
5:06 2 3 mph 1010.2mb 72f
5:00 2 5 mph 1010.2mb 72f
4:54 2 3 mph 1010.3mb 73f
4:48 2 5 mph 1010.3mb 73f
4:42 2 3 mph 1010.2mb 73f
4:36 2 5 mph 1010.2mb 73f
4:30 2 5 mph 1010.2mb 74f
4:24 2 3 mph 1010.1mb 74f
4:18 2 5 mph 1010.1mb 74f
4:12 2 3 mph 1010.2mb 74f
4:06 2 5 mph 1010.2mb 74f
4:00 2 3 mph 1010.2mb 75f
3:54 2 3 mph 1010.3mb 75f
3:48 2 5 mph 1010.3mb 75f
3:42 2 5 mph 1010.3mb 75f
3:36 2 5 mph 1010.4mb 75f
3:30 2 5 mph 1010.4mb 75f
3:24 2 5 mph 1010.4mb 75f
3:18 2 5 mph 1010.3mb 76f
3:12 2 6 mph 1010.3mb 76f
3:06 3 7 mph 1010.4mb 76f
3:00 2 3 mph 1010.4mb 75f
2:54 2 3 mph 1010.5mb 75f